Time;durP1;ratioP1;P1;durP2;ratioP2;P2;SDS_P1;SDS_P2;PMS_P1;PMS_P2;Temp;Humidity;BMP_temperature;BMP_pressure;BME280_temperature;BME280_humidity;BME280_pressure;Samples;Min_cycle;Max_cycle;Signal;HPM_P1;HPM_P2
2021/05/15 00:00:58;;;;;;;5.30;4.80;;;10.40;1.00;;;;;;5108722;27;21020;-81
2021/05/15 00:03:24;;;;;;;6.47;5.28;;;10.40;1.00;;;;;;5114253;27;21354;-81
2021/05/15 00:05:50;;;;;;;6.40;4.57;;;10.40;1.00;;;;;;5106586;27;20315;-82
2021/05/15 00:08:17;;;;;;;4.80;4.40;;;10.30;1.00;;;;;;5107725;27;20305;-83
2021/05/15 00:10:43;;;;;;;4.88;4.47;;;10.20;1.00;;;;;;5105820;27;20928;-83
2021/05/15 00:13:10;;;;;;;5.25;4.75;;;10.20;1.00;;;;;;5110494;27;20223;-84
2021/05/15 00:15:36;;;;;;;5.07;4.68;;;10.20;1.00;;;;;;5109228;27;20226;-83
2021/05/15 00:18:02;;;;;;;6.07;5.15;;;10.20;1.00;;;;;;5108583;27;20227;-84
2021/05/15 00:20:29;;;;;;;6.20;5.60;;;10.20;1.00;;;;;;5105830;27;21231;-81
2021/05/15 00:22:55;;;;;;;6.32;5.63;;;10.20;1.00;;;;;;5110920;27;21193;-83
2021/05/15 00:25:23;;;;;;;5.93;5.30;;;10.20;1.00;;;;;;5112407;27;20232;-80
2021/05/15 00:27:49;;;;;;;6.93;5.60;;;10.20;1.00;;;;;;5113267;27;20238;-82
2021/05/15 00:30:19;;;;;;;8.45;5.70;;;10.10;1.00;;;;;;5114539;27;20211;-82
2021/05/15 00:32:45;;;;;;;6.57;5.93;;;10.10;1.00;;;;;;5108627;27;20223;-83
2021/05/15 00:35:12;;;;;;;6.60;5.88;;;10.00;1.00;;;;;;5115121;27;20281;-83
2021/05/15 00:37:38;;;;;;;8.98;5.20;;;10.00;1.00;;;;;;5117114;27;20312;-84
2021/05/15 00:40:07;;;;;;;8.02;5.80;;;9.90;1.00;;;;;;5119117;27;20248;-82
2021/05/15 00:42:35;;;;;;;7.03;6.32;;;9.90;1.00;;;;;;5114341;27;20220;-83
2021/05/15 00:45:01;;;;;;;7.50;6.28;;;9.80;1.00;;;;;;5113456;27;20311;-82
2021/05/15 00:47:27;;;;;;;7.47;6.63;;;9.80;1.00;;;;;;5117329;27;20230;-84
2021/05/15 00:49:54;;;;;;;9.80;8.07;;;9.70;1.00;;;;;;5119930;27;20228;-81
2021/05/15 00:52:21;;;;;;;7.80;7.03;;;9.70;1.00;;;;;;5117387;27;20328;-83
2021/05/15 00:54:49;;;;;;;7.72;6.90;;;9.60;1.00;;;;;;5119519;27;21036;-81
2021/05/15 00:57:16;;;;;;;8.48;7.68;;;9.60;1.00;;;;;;5111554;27;20239;-81
2021/05/15 00:59:43;;;;;;;8.20;7.40;;;9.50;1.00;;;;;;5102260;27;20219;-83
2021/05/15 01:02:12;;;;;;;8.05;7.25;;;9.50;1.00;;;;;;5111897;27;20702;-81
2021/05/15 01:04:39;;;;;;;7.70;7.00;;;9.50;1.00;;;;;;5115518;27;20302;-78
2021/05/15 01:07:09;;;;;;;8.52;7.63;;;9.50;1.00;;;;;;5108991;27;20224;-78
2021/05/15 01:09:35;;;;;;;11.43;7.82;;;9.50;1.00;;;;;;5108776;27;20223;-79
2021/05/15 01:12:04;;;;;;;8.73;7.93;;;9.40;1.00;;;;;;5107104;27;20601;-79
2021/05/15 01:14:31;;;;;;;7.88;7.13;;;9.40;1.00;;;;;;5102490;27;21139;-79
2021/05/15 01:16:58;;;;;;;7.90;6.93;;;9.30;1.00;;;;;;5107286;27;20219;-79
2021/05/15 01:19:24;;;;;;;8.07;6.88;;;9.30;1.00;;;;;;5107287;27;20207;-76
2021/05/15 01:21:51;;;;;;;7.82;7.03;;;9.30;1.00;;;;;;5109111;27;20232;-78
2021/05/15 01:24:17;;;;;;;7.82;7.00;;;9.20;1.00;;;;;;5106190;27;20224;-78
2021/05/15 01:26:43;;;;;;;7.65;6.85;;;9.20;1.00;;;;;;5110514;27;20234;-78
2021/05/15 01:29:11;;;;;;;8.73;7.20;;;9.20;1.00;;;;;;5107456;27;20215;-79
2021/05/15 01:31:38;;;;;;;7.78;6.97;;;9.20;1.00;;;;;;5113760;27;20219;-77
2021/05/15 01:34:05;;;;;;;8.20;7.22;;;9.10;1.00;;;;;;5107283;27;20262;-78
2021/05/15 01:36:35;;;;;;;8.57;6.65;;;9.10;1.00;;;;;;5095505;27;20249;-78
2021/05/15 01:39:02;;;;;;;7.50;6.80;;;9.10;1.00;;;;;;5108023;27;20222;-77
2021/05/15 01:41:29;;;;;;;7.90;7.20;;;9.00;1.00;;;;;;5112993;27;20215;-79
2021/05/15 01:43:57;;;;;;;8.68;7.60;;;9.00;1.00;;;;;;5110598;27;20328;-77
2021/05/15 01:46:23;;;;;;;7.65;6.88;;;9.00;1.00;;;;;;5113830;27;20276;-80
2021/05/15 01:48:50;;;;;;;7.88;7.18;;;8.90;1.00;;;;;;5108238;27;21083;-79
2021/05/15 01:51:16;;;;;;;7.70;7.00;;;9.00;1.00;;;;;;5106401;27;20258;-79
2021/05/15 01:53:43;;;;;;;8.75;7.65;;;9.00;1.00;;;;;;5106904;27;20299;-78
2021/05/15 01:56:12;;;;;;;8.35;7.55;;;8.90;1.00;;;;;;5104599;27;20229;-79
2021/05/15 01:58:39;;;;;;;8.82;8.02;;;8.90;1.00;;;;;;5108218;27;20215;-79
2021/05/15 02:01:06;;;;;;;8.38;7.55;;;8.90;1.00;;;;;;5106605;27;20795;-77
2021/05/15 02:03:34;;;;;;;9.35;8.40;;;8.80;1.00;;;;;;5091669;27;21012;-79
2021/05/15 02:06:00;;;;;;;10.82;8.50;;;8.70;1.00;;;;;;5108704;27;20229;-79
2021/05/15 02:08:27;;;;;;;9.70;8.40;;;8.70;1.00;;;;;;5111738;27;20222;-77
2021/05/15 02:10:56;;;;;;;8.45;7.60;;;8.60;1.00;;;;;;5108830;27;20939;-77
2021/05/15 02:13:25;;;;;;;8.50;7.40;;;8.60;1.00;;;;;;5111591;27;20219;-79
2021/05/15 02:15:53;;;;;;;9.50;8.40;;;8.50;1.00;;;;;;5109226;27;20226;-78
2021/05/15 02:18:19;;;;;;;10.82;7.93;;;8.50;1.00;;;;;;5107271;27;21100;-77
2021/05/15 02:20:45;;;;;;;9.38;8.38;;;8.40;1.00;;;;;;5105392;27;20229;-78
2021/05/15 02:23:13;;;;;;;11.98;8.05;;;8.40;1.00;;;;;;5107155;27;20218;-77
2021/05/15 02:25:40;;;;;;;9.98;8.00;;;8.30;1.00;;;;;;5107360;27;20281;-78
2021/05/15 02:28:07;;;;;;;9.18;8.27;;;8.30;1.00;;;;;;5107638;27;20231;-79
2021/05/15 02:30:35;;;;;;;10.73;7.88;;;8.30;1.00;;;;;;5108706;27;20211;-78
2021/05/15 02:33:01;;;;;;;10.50;9.07;;;8.30;1.00;;;;;;5103995;27;20342;-77
2021/05/15 02:35:28;;;;;;;10.45;7.88;;;8.30;1.00;;;;;;5110335;27;20219;-77
2021/05/15 02:37:54;;;;;;;11.38;8.43;;;8.30;1.00;;;;;;5112298;27;20242;-79
2021/05/15 02:40:21;;;;;;;10.45;8.73;;;8.30;1.00;;;;;;5112825;27;20215;-79
2021/05/15 02:42:49;;;;;;;10.35;8.25;;;8.30;1.00;;;;;;5111050;27;20283;-80
2021/05/15 02:45:17;;;;;;;10.02;8.90;;;8.20;1.00;;;;;;5110451;27;20430;-79
2021/05/15 02:47:44;;;;;;;10.02;7.95;;;8.10;1.00;;;;;;5113178;27;20227;-78
2021/05/15 02:50:13;;;;;;;10.23;8.73;;;8.10;1.00;;;;;;5112624;27;20219;-78
2021/05/15 02:52:39;;;;;;;10.13;8.43;;;8.20;1.00;;;;;;5110949;27;20219;-79
2021/05/15 02:55:08;;;;;;;9.65;8.50;;;8.10;1.00;;;;;;5113181;27;20228;-79
2021/05/15 02:57:35;;;;;;;10.65;9.05;;;8.10;1.00;;;;;;5109020;27;20341;-78
2021/05/15 03:00:01;;;;;;;13.90;9.63;;;8.10;1.00;;;;;;5109922;27;20229;-79
2021/05/15 03:02:27;;;;;;;10.93;9.70;;;8.20;1.00;;;;;;5109899;27;20229;-79
2021/05/15 03:04:54;;;;;;;8.90;8.00;;;8.20;1.00;;;;;;5115360;27;20229;-79
2021/05/15 03:07:21;;;;;;;10.00;8.90;;;8.20;1.00;;;;;;5110946;27;20756;-79
2021/05/15 03:09:47;;;;;;;9.88;8.60;;;8.20;1.00;;;;;;5113429;27;20219;-80
2021/05/15 03:12:15;;;;;;;8.48;7.50;;;8.20;1.00;;;;;;5111453;27;20316;-78
2021/05/15 03:14:42;;;;;;;8.77;7.85;;;8.20;1.00;;;;;;5111829;27;20218;-78
2021/05/15 03:17:09;;;;;;;9.48;8.50;;;8.20;1.00;;;;;;5109370;27;20230;-78
2021/05/15 03:19:35;;;;;;;7.97;7.25;;;8.10;1.00;;;;;;5112250;27;20318;-79
2021/05/15 03:22:02;;;;;;;10.05;8.25;;;8.10;1.00;;;;;;5115773;27;20267;-80
2021/05/15 03:24:29;;;;;;;10.70;7.45;;;8.10;1.00;;;;;;5111355;27;20725;-79
2021/05/15 03:26:56;;;;;;;9.38;8.30;;;8.10;1.00;;;;;;5112888;27;20225;-79
2021/05/15 03:29:22;;;;;;;9.95;7.82;;;8.10;1.00;;;;;;5108024;27;20249;-79
2021/05/15 03:31:48;;;;;;;10.70;9.00;;;8.00;1.00;;;;;;5097016;27;20344;-80
2021/05/15 03:34:18;;;;;;;9.35;8.38;;;8.00;1.00;;;;;;5110348;27;20542;-80
2021/05/15 03:36:44;;;;;;;9.43;8.48;;;8.00;1.00;;;;;;5114603;27;20215;-80
2021/05/15 03:39:17;;;;;;;10.27;9.18;;;8.00;1.00;;;;;;5114675;27;20215;-80
2021/05/15 03:41:44;;;;;;;10.45;9.35;;;8.00;1.00;;;;;;5122936;27;20220;-78
2021/05/15 03:44:10;;;;;;;10.30;9.20;;;7.90;1.00;;;;;;5143624;27;20253;-77
2021/05/15 03:46:36;;;;;;;9.85;8.82;;;7.90;1.00;;;;;;5143229;27;20219;-78
2021/05/15 03:49:03;;;;;;;11.57;9.43;;;8.00;1.00;;;;;;5143537;27;20227;-77
2021/05/15 03:51:29;;;;;;;10.73;9.63;;;8.00;1.00;;;;;;5142386;27;20264;-78
2021/05/15 03:53:56;;;;;;;12.68;9.05;;;8.10;1.00;;;;;;5143102;27;20215;-78
2021/05/15 03:56:23;;;;;;;9.88;8.95;;;8.10;1.00;;;;;;5142411;27;20270;-78
2021/05/15 03:58:49;;;;;;;10.25;8.45;;;8.10;1.00;;;;;;5140060;27;20251;-78
2021/05/15 04:01:15;;;;;;;14.50;10.50;;;8.10;1.00;;;;;;5130559;27;20321;-78
2021/05/15 04:03:41;;;;;;;9.73;8.82;;;8.10;1.00;;;;;;5119273;27;20238;-78
2021/05/15 04:06:08;;;;;;;11.02;9.93;;;8.20;1.00;;;;;;5116454;27;20254;-78
2021/05/15 04:08:35;;;;;;;11.80;10.20;;;8.20;1.00;;;;;;5117227;27;20223;-79
2021/05/15 04:11:01;;;;;;;13.57;10.32;;;8.30;1.00;;;;;;5117084;27;20344;-80
2021/05/15 04:13:33;;;;;;;10.07;9.07;;;8.20;1.00;;;;;;5114706;27;20218;-79
2021/05/15 04:16:02;;;;;;;13.35;9.48;;;8.30;1.00;;;;;;5115042;27;20215;-79
2021/05/15 04:18:30;;;;;;;12.05;9.70;;;8.30;1.00;;;;;;5118262;27;20238;-79
2021/05/15 04:20:57;;;;;;;12.60;9.35;;;8.40;1.00;;;;;;5115113;27;20310;-80
2021/05/15 04:23:24;;;;;;;9.75;8.27;;;8.40;1.00;;;;;;5115441;27;20230;-78
2021/05/15 04:25:50;;;;;;;9.50;8.57;;;8.40;1.00;;;;;;5113445;27;20281;-79
2021/05/15 04:28:17;;;;;;;10.70;9.18;;;8.40;1.00;;;;;;5119417;27;20227;-78
2021/05/15 04:30:45;;;;;;;10.18;8.70;;;8.50;1.00;;;;;;5098800;27;20306;-79
2021/05/15 04:33:11;;;;;;;10.68;8.55;;;8.50;1.00;;;;;;5119627;27;20230;-79
2021/05/15 04:35:38;;;;;;;10.70;7.80;;;8.60;1.00;;;;;;5117516;27;20271;-79
2021/05/15 04:38:05;;;;;;;10.60;9.13;;;8.70;1.00;;;;;;5120326;27;20790;-79
2021/05/15 04:40:32;;;;;;;10.25;8.35;;;8.80;1.00;;;;;;5118209;27;20229;-80
2021/05/15 04:42:59;;;;;;;9.60;8.10;;;9.00;1.00;;;;;;5118869;27;20986;-78
2021/05/15 04:45:30;;;;;;;8.98;8.00;;;9.00;1.00;;;;;;5119022;27;20223;-78
2021/05/15 04:47:57;;;;;;;9.00;8.10;;;9.10;1.00;;;;;;5118716;27;20272;-78
2021/05/15 04:50:24;;;;;;;8.25;7.03;;;9.10;1.00;;;;;;5119840;27;20706;-78
2021/05/15 04:52:51;;;;;;;9.35;8.25;;;9.20;1.00;;;;;;5116196;27;20270;-79
2021/05/15 04:55:17;;;;;;;8.20;7.43;;;9.20;1.00;;;;;;5117446;27;20242;-78
2021/05/15 04:57:44;;;;;;;8.77;7.88;;;9.20;1.00;;;;;;5115155;27;20267;-79
2021/05/15 05:00:11;;;;;;;7.47;6.88;;;9.20;1.00;;;;;;5094478;27;20725;-78
2021/05/15 05:02:38;;;;;;;9.30;8.40;;;9.30;1.00;;;;;;5108901;27;20264;-79
2021/05/15 05:05:07;;;;;;;8.95;8.05;;;9.30;1.00;;;;;;5115091;27;20216;-78
2021/05/15 05:07:33;;;;;;;9.30;8.32;;;9.20;1.00;;;;;;5111413;27;20227;-79
2021/05/15 05:09:59;;;;;;;10.07;7.65;;;9.20;1.00;;;;;;5112763;27;20226;-78
2021/05/15 05:12:26;;;;;;;8.35;7.55;;;9.20;1.00;;;;;;5111008;27;20220;-79
2021/05/15 05:14:52;;;;;;;9.45;8.55;;;9.30;1.00;;;;;;5107721;27;20702;-78
2021/05/15 05:17:18;;;;;;;7.30;6.40;;;9.40;1.00;;;;;;5107763;27;20848;-79
2021/05/15 05:19:44;;;;;;;6.85;6.15;;;9.40;1.00;;;;;;5113689;27;20222;-78
2021/05/15 05:22:11;;;;;;;7.30;6.57;;;9.50;1.00;;;;;;5108944;27;20287;-79
2021/05/15 05:24:39;;;;;;;7.57;6.55;;;9.70;1.00;;;;;;5095886;27;20271;-80
2021/05/15 05:27:08;;;;;;;12.82;7.20;;;10.00;1.00;;;;;;5111635;27;20239;-78
2021/05/15 05:29:34;;;;;;;7.38;6.70;;;10.30;1.00;;;;;;5109280;27;20593;-79
2021/05/15 05:32:00;;;;;;;6.47;5.88;;;10.50;1.00;;;;;;5115329;27;20280;-78
2021/05/15 05:34:27;;;;;;;6.22;5.65;;;10.70;1.00;;;;;;5106392;27;20219;-79
2021/05/15 05:36:54;;;;;;;7.15;5.88;;;10.80;1.00;;;;;;5114324;27;20301;-79
2021/05/15 05:39:22;;;;;;;5.97;5.47;;;10.90;1.00;;;;;;5108989;27;20226;-79
2021/05/15 05:41:49;;;;;;;7.30;6.60;;;11.10;1.00;;;;;;5108947;27;20302;-80
2021/05/15 05:44:15;;;;;;;7.43;6.72;;;11.20;1.00;;;;;;5109295;27;20298;-80
2021/05/15 05:46:42;;;;;;;8.13;7.20;;;11.30;1.00;;;;;;5103645;27;20240;-77
2021/05/15 05:49:08;;;;;;;7.85;7.15;;;11.30;1.00;;;;;;5108432;27;20529;-79
2021/05/15 05:51:34;;;;;;;7.22;6.60;;;11.40;1.00;;;;;;5114242;27;20214;-79
2021/05/15 05:54:01;;;;;;;8.43;7.53;;;11.50;1.00;;;;;;5115592;27;20290;-80
2021/05/15 05:56:28;;;;;;;10.65;8.70;;;11.70;1.00;;;;;;5117420;27;20223;-81
2021/05/15 05:58:55;;;;;;;10.43;9.37;;;11.80;1.00;;;;;;5107996;27;20249;-79
2021/05/15 06:01:22;;;;;;;10.30;9.30;;;12.00;1.00;;;;;;5112526;27;20504;-80
2021/05/15 06:03:48;;;;;;;9.97;9.07;;;12.10;1.00;;;;;;5108254;27;20445;-79
2021/05/15 06:06:15;;;;;;;9.57;8.67;;;12.30;1.00;;;;;;5108441;27;20873;-81
2021/05/15 06:08:41;;;;;;;9.90;9.00;;;12.40;1.00;;;;;;5118926;27;20535;-79
2021/05/15 06:11:07;;;;;;;11.07;9.97;;;12.40;1.00;;;;;;5098468;27;23181;-81
2021/05/15 06:13:35;;;;;;;10.37;9.37;;;12.50;1.00;;;;;;5119538;27;20533;-79
2021/05/15 06:16:01;;;;;;;9.40;8.60;;;12.60;1.00;;;;;;5110935;27;20465;-80
2021/05/15 06:18:28;;;;;;;11.23;10.10;;;12.60;1.00;;;;;;5113871;27;20475;-79
2021/05/15 06:20:54;;;;;;;11.67;10.47;;;12.60;1.00;;;;;;5115731;27;20429;-80
2021/05/15 06:23:21;;;;;;;11.80;10.77;;;12.50;1.00;;;;;;5116806;27;20525;-81
2021/05/15 06:25:48;;;;;;;11.13;10.10;;;12.50;1.00;;;;;;5117013;27;21195;-79
2021/05/15 06:28:15;;;;;;;13.27;11.83;;;12.50;1.00;;;;;;5117423;27;20468;-80
2021/05/15 06:30:42;;;;;;;12.80;11.70;;;12.60;1.00;;;;;;5119855;27;20441;-78
2021/05/15 06:33:09;;;;;;;13.00;11.73;;;12.70;1.00;;;;;;5126852;27;20996;-79
2021/05/15 06:35:37;;;;;;;13.73;12.43;;;12.80;1.00;;;;;;5118525;27;20444;-80
2021/05/15 06:38:05;;;;;;;13.33;12.10;;;13.00;1.00;;;;;;5124540;27;20464;-79
2021/05/15 06:40:32;;;;;;;14.33;12.83;;;13.10;1.00;;;;;;5121101;27;20486;-79
2021/05/15 06:42:58;;;;;;;21.40;14.17;;;13.10;1.00;;;;;;5130235;27;20502;-77
2021/05/15 06:45:25;;;;;;;13.57;12.17;;;13.10;1.00;;;;;;5129329;27;21071;-79
2021/05/15 06:47:53;;;;;;;14.60;12.83;;;13.20;1.00;;;;;;5112956;27;21079;-80
2021/05/15 06:50:20;;;;;;;16.30;14.77;;;13.30;1.00;;;;;;5108304;27;20528;-79
2021/05/15 06:52:47;;;;;;;13.27;11.97;;;13.50;1.00;;;;;;5124698;27;20436;-78
2021/05/15 06:55:14;;;;;;;12.97;11.67;;;13.50;1.00;;;;;;5126934;27;20566;-78
2021/05/15 06:57:40;;;;;;;12.43;11.13;;;13.60;1.00;;;;;;5122309;27;21402;-80
2021/05/15 07:00:09;;;;;;;12.23;11.00;;;13.70;1.00;;;;;;5122313;27;20595;-78
2021/05/15 07:02:35;;;;;;;12.07;10.87;;;13.90;1.00;;;;;;5120332;27;20405;-79
2021/05/15 07:05:02;;;;;;;9.10;8.40;;;13.90;1.00;;;;;;5116853;27;20417;-78
2021/05/15 07:07:29;;;;;;;10.43;8.80;;;14.00;1.00;;;;;;5120186;27;21129;-79
2021/05/15 07:09:55;;;;;;;9.80;8.70;;;14.20;1.00;;;;;;5120491;27;20444;-78
2021/05/15 07:12:22;;;;;;;11.27;10.17;;;14.20;1.00;;;;;;5120550;27;20441;-78
2021/05/15 07:14:48;;;;;;;12.07;10.87;;;14.30;1.00;;;;;;5118361;27;21003;-80
2021/05/15 07:17:14;;;;;;;10.07;9.10;;;14.40;1.00;;;;;;5113412;27;20537;-79
2021/05/15 07:19:41;;;;;;;12.33;10.80;;;14.20;1.00;;;;;;5122264;27;20572;-78
2021/05/15 07:22:08;;;;;;;9.33;8.53;;;14.30;1.00;;;;;;5118991;27;20416;-80
2021/05/15 07:24:34;;;;;;;11.33;10.43;;;14.50;1.00;;;;;;5105923;27;20457;-79
2021/05/15 07:27:01;;;;;;;8.60;7.80;;;14.50;1.00;;;;;;5120235;27;20512;-79
2021/05/15 07:29:27;;;;;;;10.60;9.60;;;14.70;1.00;;;;;;5120255;27;20435;-78
2021/05/15 07:31:53;;;;;;;10.50;9.50;;;14.80;1.00;;;;;;5125339;27;20941;-79
2021/05/15 07:34:19;;;;;;;10.00;9.17;;;14.90;1.00;;;;;;5115289;27;20515;-80
2021/05/15 07:36:45;;;;;;;9.53;8.70;;;15.00;1.00;;;;;;5119998;27;20421;-80
2021/05/15 07:39:12;;;;;;;11.57;10.57;;;14.90;1.00;;;;;;5120043;27;20464;-81
2021/05/15 07:41:39;;;;;;;9.83;8.93;;;14.90;1.00;;;;;;5118813;27;20576;-79
2021/05/15 07:44:07;;;;;;;13.27;10.47;;;15.10;1.00;;;;;;5117195;27;20841;-79
2021/05/15 07:46:33;;;;;;;10.90;9.80;;;15.30;1.00;;;;;;5119092;27;20452;-77
2021/05/15 07:48:59;;;;;;;10.57;9.77;;;15.40;1.00;;;;;;5116217;27;20449;-79
2021/05/15 07:51:27;;;;;;;10.37;9.47;;;15.50;1.00;;;;;;5114756;27;20511;-78
2021/05/15 07:53:57;;;;;;;10.90;10.00;;;15.50;1.00;;;;;;5116934;27;20531;-82
2021/05/15 07:56:24;;;;;;;12.23;10.93;;;15.50;1.00;;;;;;5109134;27;20481;-82
2021/05/15 07:58:50;;;;;;;9.80;8.90;;;15.60;1.00;;;;;;5126306;27;21324;-82
2021/05/15 08:01:17;;;;;;;9.57;8.73;;;15.90;1.00;;;;;;5142498;27;20399;-82
2021/05/15 08:03:43;;;;;;;9.17;8.37;;;16.10;1.00;;;;;;5145794;27;20409;-79
2021/05/15 08:06:09;;;;;;;9.80;9.00;;;16.30;1.00;;;;;;5146058;27;20493;-77
2021/05/15 08:08:36;;;;;;;9.00;8.23;;;16.50;1.00;;;;;;5124733;27;20431;-78
2021/05/15 08:11:03;;;;;;;9.57;8.60;;;16.70;1.00;;;;;;5144683;27;20444;-79
2021/05/15 08:13:30;;;;;;;9.80;9.00;;;16.90;1.00;;;;;;5146132;27;20990;-79
2021/05/15 08:15:56;;;;;;;9.80;8.97;;;17.10;1.00;;;;;;5145574;27;20477;-79
2021/05/15 08:18:22;;;;;;;9.40;8.57;;;17.30;1.00;;;;;;5145134;27;20432;-80
2021/05/15 08:20:49;;;;;;;9.27;8.53;;;17.30;1.00;;;;;;5124768;27;20524;-80
2021/05/15 08:23:16;;;;;;;9.20;8.50;;;17.10;1.00;;;;;;5114730;27;20443;-81
2021/05/15 08:25:42;;;;;;;10.07;9.20;;;17.10;1.00;;;;;;5118257;27;20460;-80
2021/05/15 08:28:11;;;;;;;9.17;8.47;;;17.20;1.00;;;;;;5119873;27;21347;-80
2021/05/15 08:30:42;;;;;;;8.80;8.10;;;17.20;1.00;;;;;;5117856;27;20467;-79
2021/05/15 08:33:10;;;;;;;11.13;10.10;;;17.20;1.00;;;;;;5116867;27;20442;-78
2021/05/15 08:35:38;;;;;;;10.80;9.80;;;17.30;1.00;;;;;;5110551;27;20450;-79
2021/05/15 08:38:05;;;;;;;10.30;9.50;;;17.40;1.00;;;;;;5114183;27;20485;-79
2021/05/15 08:40:32;;;;;;;8.40;7.70;;;17.50;1.00;;;;;;5116454;27;20484;-80
2021/05/15 08:43:00;;;;;;;10.63;9.73;;;17.60;1.00;;;;;;5116930;27;20406;-78
2021/05/15 08:45:27;;;;;;;11.30;10.17;;;17.70;1.00;;;;;;5114473;27;20462;-78
2021/05/15 08:47:54;;;;;;;10.57;9.67;;;17.80;1.00;;;;;;5130662;27;20418;-80
2021/05/15 08:50:23;;;;;;;10.87;9.97;;;17.80;1.00;;;;;;5130286;27;20497;-78
2021/05/15 08:52:52;;;;;;;9.70;8.90;;;18.00;1.00;;;;;;5125108;27;20450;-79
2021/05/15 08:55:21;;;;;;;10.57;9.57;;;18.20;1.00;;;;;;5127789;27;20401;-79
2021/05/15 08:57:49;;;;;;;11.80;10.77;;;18.30;1.00;;;;;;5120982;27;20450;-79
2021/05/15 09:00:18;;;;;;;12.30;11.30;;;18.40;1.00;;;;;;5136059;27;20416;-80
2021/05/15 09:02:47;;;;;;;9.77;8.97;;;18.40;1.00;;;;;;5112946;27;20467;-78
2021/05/15 09:05:17;;;;;;;13.00;11.90;;;18.50;1.00;;;;;;5130173;27;20510;-80
2021/05/15 09:07:50;;;;;;;11.40;10.50;;;18.70;1.00;;;;;;5136180;27;20396;-80
2021/05/15 09:10:18;;;;;;;12.43;11.33;;;18.80;1.00;;;;;;5133052;27;20451;-81
2021/05/15 09:12:45;;;;;;;11.50;10.50;;;19.00;1.00;;;;;;5125787;27;20466;-79
2021/05/15 09:17:47;;;;;;;9.87;8.93;;;19.20;1.00;;;;;;5152407;27;20414;-80
2021/05/15 09:20:24;;;;;;;9.70;8.90;;;19.60;1.00;;;;;;5150739;27;20442;-80
2021/05/15 09:22:50;;;;;;;10.90;9.90;;;19.90;1.00;;;;;;5151230;27;20477;-80
2021/05/15 09:25:18;;;;;;;11.37;10.43;;;20.30;1.00;;;;;;5150970;27;20420;-80
2021/05/15 09:27:45;;;;;;;9.77;9.07;;;21.00;1.00;;;;;;5158920;27;20408;-81
2021/05/15 09:30:14;;;;;;;8.50;7.80;;;21.60;1.00;;;;;;5160029;27;20541;-80
2021/05/15 09:32:41;;;;;;;8.07;7.50;;;22.50;1.00;;;;;;5154022;27;20441;-81
2021/05/15 09:35:20;;;;;;;8.60;8.00;;;23.30;1.00;;;;;;5213296;22;20932;-80
2021/05/15 09:37:49;;;;;;;6.60;6.10;;;23.40;1.00;;;;;;5152185;27;20424;-79
2021/05/15 09:40:18;;;;;;;7.07;6.50;;;23.00;1.00;;;;;;5140521;27;20443;-80
2021/05/15 09:42:46;;;;;;;7.77;7.17;;;23.30;1.00;;;;;;5153776;27;20449;-78
2021/05/15 09:45:23;;;;;;;6.93;6.43;;;23.30;1.00;;;;;;5158954;27;20452;-80
2021/05/15 09:47:55;;;;;;;6.30;5.80;;;23.60;1.00;;;;;;5157997;27;20415;-82
2021/05/15 09:50:23;;;;;;;6.37;5.90;;;24.10;1.00;;;;;;5147052;27;20513;-81
2021/05/15 09:53:08;;;;;;;5.83;5.23;;;24.60;1.00;;;;;;5150122;27;20445;-83
2021/05/15 09:55:38;;;;;;;4.90;4.50;;;24.40;1.00;;;;;;5160579;27;20438;-81
2021/05/15 09:58:06;;;;;;;5.70;5.30;;;24.00;1.00;;;;;;5153285;27;20517;-80
2021/05/15 10:01:07;;;;;;;5.90;5.50;;;23.30;1.00;;;;;;5151768;27;20448;-81
2021/05/15 10:03:34;;;;;;;5.50;5.10;;;22.40;1.00;;;;;;5144554;27;20495;-81
2021/05/15 10:06:07;;;;;;;5.40;5.00;;;21.90;1.00;;;;;;5152716;27;21240;-81
2021/05/15 10:08:35;;;;;;;5.00;4.60;;;21.50;1.00;;;;;;5130011;27;20448;-81
2021/05/15 10:11:04;;;;;;;7.03;6.33;;;21.30;1.00;;;;;;5149676;27;20468;-78
2021/05/15 10:13:33;;;;;;;5.17;4.77;;;21.10;1.00;;;;;;5156459;27;20481;-81
2021/05/15 10:16:00;;;;;;;5.40;4.90;;;21.30;1.00;;;;;;5128336;27;20463;-81
2021/05/15 10:18:27;;;;;;;5.53;5.03;;;20.90;1.00;;;;;;5155970;27;20997;-81
2021/05/15 10:20:54;;;;;;;4.47;4.17;;;20.60;1.00;;;;;;5154079;27;20440;-82
2021/05/15 10:23:23;;;;;;;5.00;4.60;;;20.20;1.00;;;;;;5152836;27;20415;-82
2021/05/15 10:26:00;;;;;;;4.60;4.30;;;19.80;1.00;;;;;;5143776;27;20495;-80
2021/05/15 10:28:28;;;;;;;6.07;5.67;;;19.70;1.00;;;;;;5147690;27;20422;-81
2021/05/15 10:31:09;;;;;;;3.50;3.20;;;19.90;1.00;;;;;;5163658;27;20445;-80
2021/05/15 10:33:37;;;;;;;3.53;3.10;;;20.50;1.00;;;;;;5469615;22;20407;-79
2021/05/15 10:36:24;;;;;;;3.17;2.77;;;21.50;1.00;;;;;;5158900;22;20438;-80
2021/05/15 10:38:52;;;;;;;5.30;3.70;;;22.50;1.00;;;;;;5135584;27;20454;-81
2021/05/15 10:41:31;;;;;;;3.20;3.00;;;23.40;1.00;;;;;;5125063;27;20416;-79
2021/05/15 10:44:12;;;;;;;2.73;2.53;;;24.30;1.00;;;;;;5148154;27;20438;-81
2021/05/15 10:46:52;;;;;;;3.63;2.40;;;25.10;1.00;;;;;;5131156;27;20432;-80
2021/05/15 10:49:25;;;;;;;2.73;1.97;;;25.10;1.00;;;;;;5193831;22;20449;-81
2021/05/15 10:51:54;;;;;;;1.43;1.30;;;24.00;1.00;;;;;;5166630;27;20447;-80
2021/05/15 10:54:31;;;;;;;3.30;2.20;;;22.70;1.00;;;;;;5127250;27;20478;-81
2021/05/15 10:57:03;;;;;;;4.27;1.63;;;22.10;1.00;;;;;;5243724;22;20440;-82
2021/05/15 10:59:31;;;;;;;1.63;1.53;;;21.70;1.00;;;;;;5135343;27;20517;-82
2021/05/15 11:04:50;;;;;;;1.60;1.50;;;23.70;1.00;;;;;;5396700;22;20455;-80
2021/05/15 11:07:31;;;;;;;1.50;1.40;;;24.40;1.00;;;;;;5184530;27;20441;-80
2021/05/15 11:10:01;;;;;;;1.43;1.33;;;23.90;1.00;;;;;;5174637;27;20522;-80
2021/05/15 11:12:30;;;;;;;1.73;0.90;;;23.40;1.00;;;;;;5172294;27;20475;-78
2021/05/15 11:15:01;;;;;;;1.97;1.20;;;23.30;1.00;;;;;;5183480;27;20391;-81
2021/05/15 11:17:29;;;;;;;1.40;1.00;;;24.50;1.00;;;;;;5182811;27;20412;-81
2021/05/15 11:20:00;;;;;;;2.40;1.00;;;24.70;1.00;;;;;;5198746;27;20423;-83
2021/05/15 11:22:50;;;;;;;2.23;1.43;;;25.50;1.00;;;;;;5348448;22;20415;-84
2021/05/15 11:25:39;;;;;;;1.27;1.17;;;25.60;1.00;;;;;;5240695;22;20428;-85
2021/05/15 11:30:48;;;;;;;1.10;1.00;;;23.70;1.00;;;;;;5138673;27;20408;-82
2021/05/15 11:35:58;;;;;;;1.03;0.93;;;23.30;1.00;;;;;;5543734;22;20408;-82
2021/05/15 11:38:26;;;;;;;1.93;0.80;;;22.80;1.00;;;;;;5126070;27;20425;-84
2021/05/15 11:40:57;;;;;;;1.60;0.80;;;22.50;1.00;;;;;;5124805;27;20390;-82
2021/05/15 11:43:25;;;;;;;1.40;1.10;;;23.50;1.00;;;;;;5122917;27;20450;-81
2021/05/15 11:45:52;;;;;;;1.17;0.80;;;23.80;1.00;;;;;;5117978;27;20437;-82
2021/05/15 11:48:20;;;;;;;1.10;0.80;;;23.00;1.00;;;;;;5118766;27;20409;-81
2021/05/15 11:51:03;;;;;;;1.40;1.00;;;22.50;1.00;;;;;;5117799;27;20402;-80
2021/05/15 11:53:31;;;;;;;1.10;1.00;;;21.80;1.00;;;;;;5193576;22;20454;-80
2021/05/15 11:55:58;;;;;;;2.40;1.37;;;21.20;1.00;;;;;;5115024;27;20395;-82
2021/05/15 11:58:24;;;;;;;1.37;0.83;;;20.90;1.00;;;;;;5117857;27;20430;-82
2021/05/15 12:00:52;;;;;;;1.97;1.87;;;20.50;1.00;;;;;;5120571;27;20455;-82
2021/05/15 12:03:25;;;;;;;0.90;0.80;;;21.50;1.00;;;;;;5170658;22;20421;-82
2021/05/15 12:05:54;;;;;;;0.90;0.63;;;22.90;1.00;;;;;;5157480;27;20633;-83
2021/05/15 12:08:23;;;;;;;0.70;0.60;;;24.60;1.00;;;;;;5156482;27;20411;-85
2021/05/15 12:13:25;;;;;;;1.30;1.20;;;26.50;1.00;;;;;;5280720;22;20436;-84
2021/05/15 12:15:53;;;;;;;0.90;0.90;;;27.20;1.00;;;;;;5136133;27;20535;-84
2021/05/15 12:18:20;;;;;;;1.03;0.60;;;28.50;1.00;;;;;;5132725;27;20466;-84
2021/05/15 12:20:51;;;;;;;1.20;0.93;;;28.90;1.00;;;;;;5119782;28;20392;-84
2021/05/15 12:23:20;;;;;;;1.43;0.90;;;29.60;1.00;;;;;;5116815;28;20462;-83
2021/05/15 12:25:57;;;;;;;1.10;0.70;;;30.50;1.00;;;;;;5113338;27;20429;-84
2021/05/15 12:28:28;;;;;;;0.80;0.60;;;30.20;1.00;;;;;;5132764;27;20416;-85
2021/05/15 12:30:57;;;;;;;0.70;0.63;;;29.90;1.00;;;;;;5110832;27;20412;-80
2021/05/15 12:33:25;;;;;;;1.20;1.00;;;29.90;1.00;;;;;;5120802;27;20397;-82
2021/05/15 12:36:04;;;;;;;1.60;1.00;;;29.90;1.00;;;;;;5119378;27;20449;-82
2021/05/15 12:38:34;;;;;;;2.17;0.60;;;30.10;1.00;;;;;;5125719;27;20454;-85
2021/05/15 12:41:11;;;;;;;1.27;1.03;;;31.00;1.00;;;;;;5118582;27;20441;-82
2021/05/15 12:43:39;;;;;;;1.90;0.70;;;31.10;1.00;;;;;;5098603;27;20460;-84
2021/05/15 12:46:14;;;;;;;1.63;0.70;;;31.80;1.00;;;;;;5116926;27;20452;-79
2021/05/15 12:48:54;;;;;;;0.80;0.60;;;32.10;1.00;;;;;;5122498;27;20452;-86
2021/05/15 12:51:31;;;;;;;0.80;0.60;;;32.60;1.00;;;;;;5291093;22;20425;-84
2021/05/15 12:53:59;;;;;;;1.27;1.00;;;32.10;1.00;;;;;;5133579;27;20761;-85
2021/05/15 12:59:33;;;;;;;1.23;0.60;;;33.00;1.00;;;;;;5145087;22;20467;-85
2021/05/15 13:02:16;;;;;;;0.80;0.47;;;32.40;1.00;;;;;;5130063;27;20404;-84
2021/05/15 13:04:45;;;;;;;2.20;0.63;;;30.70;1.00;;;;;;5130803;27;20468;-86
2021/05/15 13:07:25;;;;;;;1.03;0.53;;;31.10;1.00;;;;;;5118723;27;20429;-85
2021/05/15 13:09:54;;;;;;;0.90;0.50;;;31.00;1.00;;;;;;5127614;27;20411;-84
2021/05/15 13:12:26;;;;;;;1.30;0.87;;;31.70;1.00;;;;;;5121547;27;20473;-85
2021/05/15 13:14:53;;;;;;;1.13;0.87;;;32.00;1.00;;;;;;5122473;27;20580;-84
2021/05/15 13:20:32;;;;;;;1.53;0.53;;;30.90;1.00;;;;;;5117644;27;20463;-83